Time;durP1;ratioP1;P1;durP2;ratioP2;P2;SDS_P1;SDS_P2;PMS_P1;PMS_P2;Temp;Humidity;BMP_temperature;BMP_pressure;BME280_temperature;BME280_humidity;BME280_pressure;Samples;Min_cycle;Max_cycle;Signal;HPM_P1;HPM_P2
2022/07/02 00:00:02;;;;;;;9.00;4.40;;;17.10;99.90;;;13.50;100.00;101159.81;5006447;28;20633;-84
2022/07/02 00:02:43;;;;;;;9.85;4.18;;;17.10;99.90;;;13.45;100.00;101157.63;5007449;28;20049;-82
2022/07/02 00:05:14;;;;;;;8.60;3.88;;;17.00;99.90;;;13.42;100.00;101162.63;5006455;28;20117;-84
2022/07/02 00:07:43;;;;;;;7.55;3.50;;;17.00;99.90;;;13.41;100.00;101160.94;5007496;28;20053;-84
2022/07/02 00:10:11;;;;;;;7.35;3.50;;;17.00;99.90;;;13.40;100.00;101164.69;5007888;28;20050;-84
2022/07/02 00:12:38;;;;;;;10.55;3.80;;;17.00;99.90;;;13.40;100.00;101161.97;5007994;28;20033;-84
2022/07/02 00:15:07;;;;;;;11.10;4.13;;;17.00;99.90;;;13.38;100.00;101161.28;5007911;28;20098;-84
2022/07/02 00:17:35;;;;;;;8.38;3.70;;;17.00;99.90;;;13.34;100.00;101159.97;5008094;28;20041;-84
2022/07/02 00:20:03;;;;;;;5.93;3.80;;;17.00;99.90;;;13.32;100.00;101153.84;5008687;28;20129;-84
2022/07/02 00:22:33;;;;;;;5.60;3.33;;;17.00;99.90;;;13.29;100.00;101152.31;5005874;28;20052;-84
2022/07/02 00:25:01;;;;;;;7.90;3.85;;;16.90;99.90;;;13.26;100.00;101152.69;5006858;28;20046;-84
2022/07/02 00:27:31;;;;;;;9.25;3.63;;;16.90;99.90;;;13.25;100.00;101149.09;5008265;28;20073;-84
2022/07/02 00:30:00;;;;;;;8.25;3.55;;;16.90;99.90;;;13.21;100.00;101150.53;5007883;28;20042;-84
2022/07/02 00:32:29;;;;;;;8.30;3.90;;;16.90;99.90;;;13.19;100.00;101158.03;5004967;28;20128;-84
2022/07/02 00:34:59;;;;;;;6.57;3.30;;;16.90;99.90;;;13.19;100.00;101162.66;5007385;28;20046;-83
2022/07/02 00:37:27;;;;;;;7.25;3.53;;;16.90;99.90;;;13.15;100.00;101156.69;5007985;28;20049;-84
2022/07/02 00:39:55;;;;;;;7.45;3.47;;;16.80;99.90;;;13.14;100.00;101160.50;5007895;28;20431;-83
2022/07/02 00:42:25;;;;;;;8.48;3.45;;;16.80;99.90;;;13.10;100.00;101160.00;5007318;28;20073;-84
2022/07/02 00:44:53;;;;;;;11.35;3.30;;;16.80;99.90;;;13.11;100.00;101160.84;5006005;28;20053;-84
2022/07/02 00:47:24;;;;;;;6.25;3.38;;;16.90;99.90;;;13.07;100.00;101165.84;5009768;28;20132;-84
2022/07/02 00:49:51;;;;;;;7.85;3.42;;;16.80;99.90;;;13.07;100.00;101154.91;5008117;28;20041;-83
2022/07/02 00:52:18;;;;;;;7.53;3.60;;;16.70;99.90;;;13.06;100.00;101169.63;5004287;28;20034;-83
2022/07/02 00:54:45;;;;;;;5.28;2.78;;;16.70;99.90;;;13.04;100.00;101168.09;5008342;28;20050;-84
2022/07/02 00:57:13;;;;;;;5.18;2.78;;;16.70;99.90;;;13.02;100.00;101161.94;5007439;28;20141;-84
2022/07/02 00:59:43;;;;;;;10.85;3.30;;;16.60;99.90;;;12.97;100.00;101159.78;4997587;28;20054;-84
2022/07/02 01:02:10;;;;;;;7.22;3.05;;;16.70;99.90;;;12.96;100.00;101151.78;5006466;28;20045;-84
2022/07/02 01:04:40;;;;;;;5.68;3.22;;;16.60;99.90;;;12.94;100.00;101154.69;5007839;28;20052;-83
2022/07/02 01:07:11;;;;;;;7.38;3.20;;;16.60;99.90;;;12.93;100.00;101152.13;5007288;28;20054;-83
2022/07/02 01:12:26;;;;;;;8.13;3.25;;;16.60;99.90;;;12.90;100.00;101150.63;5004110;28;20046;-84
2022/07/02 01:14:57;;;;;;;7.43;3.20;;;16.50;99.90;;;12.83;100.00;101147.78;4997960;28;20423;-84
2022/07/02 01:17:25;;;;;;;9.30;3.28;;;16.50;99.90;;;12.83;100.00;101149.66;5011780;28;20066;-84
2022/07/02 01:19:53;;;;;;;5.28;2.97;;;16.60;99.90;;;12.79;100.00;101143.72;5008376;28;20164;-84
2022/07/02 01:22:23;;;;;;;7.57;3.20;;;16.50;99.90;;;12.77;100.00;101143.03;5010323;28;20141;-84
2022/07/02 01:24:52;;;;;;;5.28;2.90;;;16.40;99.90;;;12.76;100.00;101141.38;5010563;28;20083;-84
2022/07/02 01:27:22;;;;;;;7.45;3.35;;;16.40;99.90;;;12.75;100.00;101134.19;5010375;28;20073;-84
2022/07/02 01:29:50;;;;;;;6.47;3.30;;;16.50;99.90;;;12.72;100.00;101145.50;5011427;28;20038;-82
2022/07/02 01:32:18;;;;;;;5.60;3.03;;;16.40;99.90;;;12.67;100.00;101137.00;5011163;28;20419;-82
2022/07/02 01:34:48;;;;;;;6.90;3.22;;;16.40;99.90;;;12.68;100.00;101144.16;5011475;28;20408;-82
2022/07/02 01:37:18;;;;;;;8.52;3.40;;;16.40;99.90;;;12.66;100.00;101141.63;5010070;28;20042;-82
2022/07/02 01:39:47;;;;;;;5.85;3.20;;;16.40;99.90;;;12.62;100.00;101144.88;5007686;28;20040;-81
2022/07/02 01:42:15;;;;;;;7.85;3.00;;;16.40;99.90;;;12.63;100.00;101147.44;5011195;28;20428;-84
2022/07/02 01:44:44;;;;;;;6.15;2.80;;;16.30;99.90;;;12.58;100.00;101151.75;5011510;28;20053;-84
2022/07/02 01:47:12;;;;;;;9.30;3.40;;;16.30;99.90;;;12.59;100.00;101148.00;5007693;28;20046;-81
2022/07/02 01:49:40;;;;;;;7.22;2.70;;;16.30;99.90;;;12.59;100.00;101153.44;5010614;28;20524;-82
2022/07/02 01:52:09;;;;;;;7.00;2.72;;;16.30;99.90;;;12.56;100.00;101148.34;5010981;28;20515;-82
2022/07/02 01:54:37;;;;;;;5.78;2.90;;;16.30;99.90;;;12.55;100.00;101143.94;5007378;28;20045;-81
2022/07/02 01:57:06;;;;;;;7.22;3.22;;;16.30;99.90;;;12.54;100.00;101142.22;5010972;28;20046;-82
2022/07/02 01:59:34;;;;;;;5.88;2.85;;;16.30;99.90;;;12.51;100.00;101149.75;5010848;28;20042;-84
2022/07/02 02:02:02;;;;;;;6.82;2.90;;;16.20;99.90;;;12.51;100.00;101143.44;5011015;28;20038;-83
2022/07/02 02:04:29;;;;;;;7.93;3.42;;;16.20;99.90;;;12.48;100.00;101149.25;5012324;28;20124;-83
2022/07/02 02:06:57;;;;;;;6.55;3.00;;;16.20;99.90;;;12.47;100.00;101148.41;5008337;28;20041;-84
2022/07/02 02:09:24;;;;;;;5.60;2.78;;;16.20;99.90;;;12.46;100.00;101145.84;5009069;28;20069;-84
2022/07/02 02:11:51;;;;;;;8.50;2.95;;;16.10;99.90;;;12.45;100.00;101145.03;5010161;28;20050;-84
2022/07/02 02:14:20;;;;;;;5.65;2.90;;;16.10;99.90;;;12.44;100.00;101143.31;5010100;28;20420;-84
2022/07/02 02:16:47;;;;;;;5.32;2.80;;;16.10;99.90;;;12.44;100.00;101137.84;5010572;28;20109;-84
2022/07/02 02:19:14;;;;;;;4.20;2.70;;;16.10;99.90;;;12.41;100.00;101146.38;5010290;28;20038;-84
2022/07/02 02:21:42;;;;;;;8.30;2.60;;;16.10;99.90;;;12.39;100.00;101142.16;5010096;28;20048;-84
2022/07/02 02:24:10;;;;;;;12.63;3.40;;;16.10;99.90;;;12.37;100.00;101142.31;5008233;28;20080;-84
2022/07/02 02:26:37;;;;;;;5.50;2.85;;;16.00;99.90;;;12.36;100.00;101143.38;5009390;28;20038;-84
2022/07/02 02:29:04;;;;;;;8.05;3.40;;;16.00;99.90;;;12.33;100.00;101147.28;5008997;28;20053;-83
2022/07/02 02:31:32;;;;;;;7.65;2.90;;;16.00;99.90;;;12.31;100.00;101137.59;5007643;28;20540;-84
2022/07/02 02:34:00;;;;;;;5.50;3.20;;;16.00;99.90;;;12.27;100.00;101141.72;5010942;28;20048;-83
2022/07/02 02:36:27;;;;;;;5.15;2.67;;;16.00;99.90;;;12.29;100.00;101134.19;5005727;28;20069;-84
2022/07/02 02:38:54;;;;;;;5.13;2.92;;;16.00;99.90;;;12.25;100.00;101149.25;5005034;28;20489;-84
2022/07/02 02:41:21;;;;;;;6.28;2.88;;;16.00;99.90;;;12.24;100.00;101152.97;5008707;28;20050;-84
2022/07/02 02:43:49;;;;;;;9.30;2.80;;;16.00;99.90;;;12.20;100.00;101151.66;5009908;28;20042;-83
2022/07/02 02:46:16;;;;;;;6.80;2.95;;;15.90;99.90;;;12.21;100.00;101150.63;5008867;28;20042;-83
2022/07/02 02:48:45;;;;;;;8.60;3.40;;;15.90;99.90;;;12.22;100.00;101146.88;5008995;28;20046;-83
2022/07/02 02:51:14;;;;;;;6.72;2.95;;;15.90;99.90;;;12.18;100.00;101146.38;5010306;28;20050;-84
2022/07/02 02:53:43;;;;;;;6.15;2.90;;;15.90;99.90;;;12.20;100.00;101148.91;5010578;28;20070;-83
2022/07/02 02:56:11;;;;;;;7.85;2.85;;;15.80;99.90;;;12.17;100.00;101146.56;5008533;28;20065;-83
2022/07/02 02:58:39;;;;;;;5.10;2.90;;;15.90;99.90;;;12.12;100.00;101150.66;5009126;28;20052;-84
2022/07/02 03:01:06;;;;;;;7.15;3.05;;;15.90;99.90;;;12.10;100.00;101146.41;5010009;28;20495;-84
2022/07/02 03:03:33;;;;;;;6.43;3.03;;;15.80;99.90;;;12.10;100.00;101152.72;5005106;28;20591;-83
2022/07/02 03:06:02;;;;;;;4.93;2.90;;;15.80;99.90;;;12.10;100.00;101162.78;5007448;28;20042;-84
2022/07/02 03:08:29;;;;;;;7.88;3.30;;;15.90;99.90;;;12.10;100.00;101158.19;5006536;28;20045;-83
2022/07/02 03:10:56;;;;;;;7.07;3.03;;;15.80;99.90;;;12.09;100.00;101159.22;5008855;28;20050;-84
2022/07/02 03:13:23;;;;;;;6.88;3.00;;;15.80;99.90;;;12.10;100.00;101160.91;5009257;28;20153;-83
2022/07/02 03:15:51;;;;;;;4.57;2.80;;;15.80;99.90;;;12.06;100.00;101162.31;5009687;28;20041;-83
2022/07/02 03:18:18;;;;;;;6.18;2.85;;;15.80;99.90;;;12.08;100.00;101160.25;5000456;28;20050;-83
2022/07/02 03:20:45;;;;;;;4.70;2.70;;;15.80;99.90;;;12.06;100.00;101162.31;5008368;28;20113;-83
2022/07/02 03:23:13;;;;;;;5.43;3.10;;;15.80;99.90;;;12.05;100.00;101155.16;5006590;28;20041;-83
2022/07/02 03:25:41;;;;;;;5.13;2.83;;;15.80;99.90;;;12.06;100.00;101162.31;5003997;28;20043;-83
2022/07/02 03:28:08;;;;;;;8.30;3.00;;;15.70;99.90;;;12.04;100.00;101160.78;5020467;23;20080;-81
2022/07/02 03:30:35;;;;;;;5.05;2.97;;;15.80;99.90;;;12.06;100.00;101164.19;5003227;28;20049;-82
2022/07/02 03:33:02;;;;;;;6.28;3.30;;;15.70;99.90;;;12.07;100.00;101166.75;5009282;28;20128;-82
2022/07/02 03:35:29;;;;;;;4.82;2.72;;;15.80;99.90;;;12.07;100.00;101169.47;5016496;28;20042;-82
2022/07/02 03:37:57;;;;;;;6.72;3.53;;;15.90;99.90;;;12.08;100.00;101171.16;5012875;28;20046;-82
2022/07/02 03:40:27;;;;;;;5.28;2.95;;;15.70;99.90;;;12.08;100.00;101170.31;4997865;28;20140;-82
2022/07/02 03:42:54;;;;;;;6.80;2.90;;;15.70;99.90;;;12.10;100.00;101169.09;5001641;28;20054;-82
2022/07/02 03:45:21;;;;;;;6.90;2.80;;;15.70;99.90;;;12.10;100.00;101166.38;5004456;28;20292;-81
2022/07/02 03:47:49;;;;;;;5.05;2.83;;;15.70;99.90;;;12.07;100.00;101166.75;5008917;28;20060;-82
2022/07/02 03:50:16;;;;;;;5.13;3.00;;;15.70;99.90;;;12.13;100.00;101160.56;5007485;28;20065;-82
2022/07/02 03:52:43;;;;;;;5.03;2.70;;;15.70;99.90;;;12.17;100.00;101166.50;5009047;28;20494;-81
2022/07/02 03:55:11;;;;;;;4.65;2.53;;;15.70;99.90;;;12.17;100.00;101163.78;5008142;28;20038;-82
2022/07/02 03:57:39;;;;;;;5.82;2.90;;;15.70;99.90;;;12.20;100.00;101157.09;5007875;28;20053;-82
2022/07/02 04:00:09;;;;;;;7.28;3.05;;;15.70;99.90;;;12.22;100.00;101157.78;5002308;28;20034;-81
2022/07/02 04:02:42;;;;;;;5.63;3.15;;;15.70;99.90;;;12.25;100.00;101171.91;5008837;28;20057;-82
2022/07/02 04:05:09;;;;;;;5.55;2.97;;;15.70;99.90;;;12.35;100.00;101166.22;5009453;28;20054;-82
2022/07/02 04:07:36;;;;;;;11.73;3.10;;;15.70;99.90;;;12.45;100.00;101169.59;5009345;28;20113;-81
2022/07/02 04:10:05;;;;;;;5.38;3.20;;;15.70;99.90;;;12.59;100.00;101167.94;5007483;28;20034;-82
2022/07/02 04:12:32;;;;;;;6.18;3.03;;;15.80;99.90;;;12.71;100.00;101176.56;5006338;28;20049;-82
2022/07/02 04:15:01;;;;;;;10.77;3.63;;;15.80;99.90;;;12.75;100.00;101172.44;5009075;28;20074;-82
2022/07/02 04:17:28;;;;;;;8.15;3.50;;;15.80;99.90;;;12.70;100.00;101177.59;5006744;28;20041;-82
2022/07/02 04:19:56;;;;;;;6.30;2.92;;;15.90;99.90;;;12.78;100.00;101169.34;5007527;28;20064;-81
2022/07/02 04:22:23;;;;;;;6.97;3.20;;;15.90;99.90;;;12.90;100.00;101169.75;5008846;28;20045;-82
2022/07/02 04:24:50;;;;;;;8.10;3.28;;;16.00;99.90;;;12.95;100.00;101170.06;5008817;28;20050;-83
2022/07/02 04:27:18;;;;;;;7.22;3.35;;;16.00;99.90;;;13.03;100.00;101174.59;5006508;28;20121;-82
2022/07/02 04:29:45;;;;;;;8.48;3.40;;;16.00;99.90;;;13.03;100.00;101163.66;5007539;28;20041;-81
2022/07/02 04:32:14;;;;;;;7.80;3.17;;;16.00;99.90;;;13.14;100.00;101160.50;5008588;28;20594;-82
2022/07/02 04:34:42;;;;;;;9.40;3.45;;;16.00;99.90;;;13.30;100.00;101160.34;5008779;28;20045;-81
2022/07/02 04:37:09;;;;;;;6.60;2.83;;;16.10;99.90;;;13.43;100.00;101164.31;5002692;28;20402;-82
2022/07/02 04:39:36;;;;;;;6.38;2.80;;;16.20;99.90;;;13.59;100.00;101175.06;5002507;28;20121;-82
2022/07/02 04:42:04;;;;;;;6.50;3.13;;;16.30;99.90;;;13.76;100.00;101162.03;5008596;28;20048;-83
2022/07/02 04:44:32;;;;;;;5.32;2.90;;;16.40;99.90;;;13.92;100.00;101169.22;5010548;28;20121;-82
2022/07/02 04:46:59;;;;;;;7.65;3.00;;;16.50;99.90;;;14.00;100.00;101168.25;5011787;28;20052;-80
2022/07/02 04:49:28;;;;;;;8.82;3.30;;;16.60;99.90;;;14.19;100.00;101164.06;5011049;28;20042;-82
2022/07/02 04:51:55;;;;;;;7.43;3.28;;;16.60;99.90;;;14.33;100.00;101162.34;5012359;28;20038;-83
2022/07/02 04:54:22;;;;;;;8.00;3.13;;;16.70;99.90;;;14.42;100.00;101167.50;5011219;28;20046;-84
2022/07/02 04:56:49;;;;;;;9.40;3.38;;;16.80;99.90;;;14.61;100.00;101162.47;5012652;28;20116;-84
2022/07/02 04:59:16;;;;;;;6.57;2.80;;;16.80;99.90;;;14.68;100.00;101163.38;5008418;28;20041;-84
2022/07/02 05:01:43;;;;;;;6.43;2.63;;;17.00;99.90;;;14.80;100.00;101156.31;5007219;28;20095;-84
2022/07/02 05:04:11;;;;;;;6.35;2.90;;;17.00;99.90;;;14.93;100.00;101160.22;5011504;28;20056;-85
2022/07/02 05:06:40;;;;;;;9.07;2.78;;;17.10;99.90;;;15.04;100.00;101165.16;5010206;28;20443;-84
2022/07/02 05:09:07;;;;;;;8.55;3.17;;;17.20;99.90;;;15.13;100.00;101166.72;5011492;28;20042;-84
2022/07/02 05:11:34;;;;;;;6.28;2.92;;;17.40;99.90;;;15.32;100.00;101173.38;5006793;28;20069;-84
2022/07/02 05:14:01;;;;;;;5.78;2.72;;;17.40;99.90;;;15.51;100.00;101165.50;5009439;28;20048;-84
2022/07/02 05:16:29;;;;;;;6.80;2.97;;;17.50;99.90;;;15.62;100.00;101173.19;5011612;28;20252;-84
2022/07/02 05:18:56;;;;;;;6.00;2.72;;;17.60;99.90;;;15.73;100.00;101167.16;5010841;28;20049;-83
2022/07/02 05:21:23;;;;;;;5.47;2.67;;;17.70;99.90;;;15.76;100.00;101164.00;5026669;28;20048;-83
2022/07/02 05:23:52;;;;;;;5.45;2.63;;;17.70;99.90;;;15.74;100.00;101162.50;5010562;28;20045;-77
2022/07/02 05:26:20;;;;;;;8.05;3.05;;;17.70;99.90;;;15.78;100.00;101164.66;5009060;28;20042;-77
2022/07/02 05:28:47;;;;;;;5.85;3.00;;;17.80;99.90;;;15.84;100.00;101160.25;5009141;28;20523;-77
2022/07/02 05:31:14;;;;;;;5.15;2.63;;;17.80;99.90;;;15.86;100.00;101160.91;5010440;28;20038;-77
2022/07/02 05:33:41;;;;;;;5.57;2.55;;;17.80;99.90;;;15.88;100.00;101168.91;5004143;28;20120;-80
2022/07/02 05:36:09;;;;;;;6.57;3.00;;;17.90;99.90;;;15.96;100.00;101172.34;5006416;28;20120;-80
2022/07/02 05:38:36;;;;;;;6.03;3.00;;;17.90;99.90;;;16.08;100.00;101169.84;5010888;28;20053;-80
2022/07/02 05:41:04;;;;;;;5.60;2.75;;;17.90;99.90;;;16.15;100.00;101167.97;5010667;28;20046;-80
2022/07/02 05:43:31;;;;;;;6.82;3.00;;;17.90;99.90;;;16.25;100.00;101173.06;5009115;28;20040;-80
2022/07/02 05:45:59;;;;;;;10.55;3.08;;;18.00;99.90;;;16.33;100.00;101175.63;5011692;28;20073;-80
2022/07/02 05:48:26;;;;;;;8.75;2.95;;;18.10;99.90;;;16.39;100.00;101169.34;5008241;28;20496;-80
2022/07/02 05:50:53;;;;;;;11.90;2.90;;;18.10;99.90;;;16.41;100.00;101172.72;5008338;28;20042;-80
2022/07/02 05:53:20;;;;;;;8.93;4.65;;;18.20;99.90;;;16.46;100.00;101171.25;5011276;28;20136;-91
2022/07/02 05:55:48;;;;;;;6.82;3.25;;;18.20;99.90;;;16.58;100.00;101169.56;5010409;28;20046;-94
2022/07/02 05:58:17;;;;;;;7.30;3.45;;;18.30;99.90;;;17.02;100.00;101175.56;5014227;28;20042;-93
2022/07/02 06:00:44;;;;;;;9.10;3.83;;;18.50;99.90;;;18.59;95.16;101173.66;5012783;28;20042;-95
2022/07/02 06:03:11;;;;;;;8.38;3.15;;;19.00;99.90;;;20.45;85.63;101172.94;5013612;28;20140;-95
2022/07/02 06:08:23;;;;;;;7.50;3.35;;;20.10;99.90;;;23.41;67.21;101171.31;5013537;28;20042;-94
2022/07/02 06:10:51;;;;;;;7.60;2.80;;;20.60;97.40;;;24.65;60.86;101165.44;5007306;28;20062;-95
2022/07/02 06:13:20;;;;;;;6.95;2.00;;;21.10;95.10;;;25.86;55.59;101171.41;5028389;28;20041;-96
2022/07/02 06:15:48;;;;;;;6.65;3.05;;;21.50;93.10;;;27.14;52.24;101168.97;5021619;28;20109;-96
2022/07/02 06:34:21;;;;;;;6.60;2.03;;;23.30;85.40;;;33.69;32.24;101193.31;4990591;28;20050;-88
2022/07/02 06:36:48;;;;;;;4.95;1.90;;;23.40;84.90;;;30.91;38.83;101200.34;5010720;28;20420;-87
2022/07/02 06:39:15;;;;;;;6.00;1.90;;;23.50;86.50;;;27.36;45.05;101204.19;5009744;28;20568;-88
2022/07/02 06:44:27;;;;;;;4.35;1.67;;;23.40;85.70;;;23.44;56.43;101215.28;4981701;28;20043;-89
2022/07/02 06:46:55;;;;;;;6.90;1.88;;;23.30;86.80;;;22.86;59.17;101213.69;4987808;28;20053;-89
2022/07/02 06:49:23;;;;;;;5.45;1.80;;;23.10;86.50;;;22.36;64.04;101204.97;4992269;28;20140;-90
2022/07/02 06:51:51;;;;;;;7.28;1.70;;;23.00;88.20;;;22.13;65.43;101193.94;4991390;28;20046;-90
2022/07/02 06:54:18;;;;;;;5.22;1.60;;;22.90;88.80;;;22.01;63.39;101200.34;4989628;28;20104;-89
2022/07/02 06:56:45;;;;;;;4.90;1.63;;;22.80;87.30;;;21.95;63.67;101197.69;4990692;28;20057;-89
2022/07/02 06:59:12;;;;;;;6.55;1.90;;;22.70;87.20;;;21.80;64.72;101201.81;4989178;28;20046;-90
2022/07/02 07:01:40;;;;;;;5.82;1.75;;;22.60;87.10;;;21.73;66.24;101206.66;4991255;28;20398;-89
2022/07/02 07:04:07;;;;;;;5.55;1.42;;;22.60;88.00;;;21.64;67.46;101208.09;4990075;28;20042;-87
2022/07/02 07:06:36;;;;;;;7.95;1.63;;;22.40;88.80;;;21.73;65.01;101209.41;4989145;28;20097;-87
2022/07/02 07:09:05;;;;;;;8.55;1.85;;;22.40;87.40;;;21.67;65.88;101210.38;4989548;28;20509;-88
2022/07/02 07:11:32;;;;;;;5.82;1.60;;;22.30;87.70;;;21.60;67.23;101206.88;5007747;28;20516;-89
2022/07/02 07:13:59;;;;;;;4.78;1.75;;;22.30;89.80;;;21.59;66.21;101203.28;4989608;28;20156;-89
2022/07/02 07:16:27;;;;;;;5.05;2.10;;;22.30;88.60;;;21.55;67.42;101206.75;4991274;28;20070;-89
2022/07/02 07:18:55;;;;;;;6.93;1.63;;;22.30;88.80;;;21.47;65.26;101203.25;4990603;28;20046;-89
2022/07/02 07:21:25;;;;;;;6.15;1.48;;;22.20;88.10;;;21.52;64.63;101198.97;4974171;28;20761;-90
2022/07/02 07:23:53;;;;;;;3.57;1.43;;;22.10;87.30;;;21.51;65.04;101203.63;4990274;28;20065;-87
2022/07/02 07:26:21;;;;;;;6.63;1.42;;;22.20;87.30;;;21.43;63.31;101202.03;4990564;28;20475;-91
2022/07/02 07:28:48;;;;;;;4.57;1.50;;;22.10;86.40;;;21.37;63.56;101194.69;4984907;28;20047;-87
2022/07/02 07:31:19;;;;;;;4.28;1.65;;;22.10;86.30;;;21.39;65.86;101194.47;4988504;28;20055;-87
2022/07/02 07:33:47;;;;;;;;;;;22.10;88.10;;;21.43;65.23;101196.50;4988976;28;20050;-88
2022/07/02 07:36:14;;;;;;;3.85;1.23;;;22.10;87.60;;;21.45;63.52;101190.75;5004178;28;19989;-88
2022/07/02 07:38:42;;;;;;;5.13;1.10;;;22.10;86.80;;;21.42;64.47;101185.69;5006730;28;20406;-89
2022/07/02 07:41:11;;;;;;;8.02;1.33;;;22.10;87.50;;;21.37;63.35;101191.91;4990375;28;20050;-91
2022/07/02 07:43:38;;;;;;;8.15;1.35;;;22.10;86.00;;;21.39;62.84;101189.75;4989625;28;20054;-90
2022/07/02 07:46:06;;;;;;;5.13;1.33;;;22.10;85.80;;;21.48;63.65;101193.06;4990648;28;20058;-90
2022/07/02 07:48:33;;;;;;;2.15;0.70;;;22.10;86.40;;;21.49;63.93;101191.94;5006272;28;20046;-89
2022/07/02 07:51:00;;;;;;;5.30;1.40;;;22.20;86.90;;;21.51;64.37;101191.72;4989530;28;20140;-89
2022/07/02 07:53:28;;;;;;;3.53;1.10;;;22.20;87.70;;;21.43;61.10;101184.59;4989193;28;20129;-88
2022/07/02 07:55:55;;;;;;;3.53;0.98;;;22.20;84.70;;;21.45;62.71;101188.81;4988706;28;20113;-88
2022/07/02 07:58:24;;;;;;;6.60;1.60;;;22.20;85.10;;;21.42;62.65;101189.28;4987798;28;20109;-87
2022/07/02 08:00:52;;;;;;;5.07;1.20;;;22.20;85.90;;;21.47;63.31;101186.66;4999403;28;20128;-87
2022/07/02 08:03:19;;;;;;;5.18;1.00;;;22.20;85.60;;;21.56;61.31;101192.69;4986757;28;20104;-87
2022/07/02 08:05:53;;;;;;;4.85;1.40;;;22.20;83.90;;;21.60;63.13;101193.03;4986867;28;20046;-86
2022/07/02 08:08:21;;;;;;;5.20;1.10;;;22.30;85.60;;;21.66;63.57;101189.28;4986291;28;20054;-87
2022/07/02 08:10:48;;;;;;;3.70;1.17;;;22.30;86.10;;;21.60;57.98;101190.28;4986462;28;20054;-86
2022/07/02 08:13:16;;;;;;;4.53;1.20;;;22.30;81.90;;;21.62;59.51;101199.19;4984084;28;20869;-87
2022/07/02 08:15:45;;;;;;;6.63;1.35;;;22.30;84.40;;;21.64;60.55;101199.78;5003355;28;20058;-87
2022/07/02 08:18:12;;;;;;;12.13;1.55;;;22.30;84.00;;;21.64;59.94;101197.00;4984298;28;20919;-87
2022/07/02 08:20:39;;;;;;;6.38;1.38;;;22.30;83.20;;;21.64;60.54;101199.78;4982038;28;20038;-87
2022/07/02 08:23:07;;;;;;;7.60;1.38;;;22.30;84.20;;;21.62;58.07;101196.41;4986159;28;20055;-86
2022/07/02 08:25:34;;;;;;;8.27;1.58;;;22.30;82.20;;;21.70;61.16;101196.03;4968762;28;20141;-86
2022/07/02 08:28:01;;;;;;;4.75;1.20;;;22.30;84.20;;;21.71;60.89;101192.19;4979426;28;20105;-86
2022/07/02 08:30:29;;;;;;;4.07;1.13;;;22.30;84.00;;;21.68;59.26;101192.66;4987883;28;20109;-86
2022/07/02 08:32:57;;;;;;;3.33;0.93;;;22.30;82.40;;;21.69;61.20;101191.59;4986788;28;20137;-87
2022/07/02 08:35:25;;;;;;;3.78;1.13;;;22.40;84.60;;;21.76;59.41;101195.09;4983545;28;20042;-86
2022/07/02 08:37:53;;;;;;;7.00;1.20;;;22.40;83.20;;;21.84;61.23;101185.56;4986536;28;20537;-86
2022/07/02 08:40:25;;;;;;;6.13;1.10;;;22.40;84.60;;;21.84;60.77;101189.16;4986306;28;20042;-87
2022/07/02 08:42:54;;;;;;;5.50;1.08;;;22.40;84.80;;;21.96;59.25;101188.31;4983546;28;20157;-86
2022/07/02 08:45:24;;;;;;;5.25;1.10;;;22.50;83.00;;;21.99;60.53;101187.78;4986472;28;20069;-86
2022/07/02 08:47:54;;;;;;;3.97;0.98;;;22.50;83.60;;;22.00;60.78;101189.50;4987756;28;20557;-87
2022/07/02 08:50:26;;;;;;;3.42;0.98;;;22.60;84.00;;;21.94;57.27;101185.78;4967320;28;20521;-87
2022/07/02 08:52:54;;;;;;;2.25;1.10;;;22.60;80.70;;;21.90;57.53;101178.19;4995057;28;20074;-89
2022/07/02 08:55:22;;;;;;;11.45;1.45;;;22.60;81.40;;;21.89;59.97;101176.50;4986978;28;20073;-87
2022/07/02 08:57:51;;;;;;;5.20;1.25;;;22.50;81.90;;;21.75;56.49;101176.75;4989280;28;20382;-88
2022/07/02 09:00:21;;;;;;;5.38;1.90;;;22.50;79.70;;;21.43;53.97;101179.88;4975118;28;20105;-87
2022/07/02 09:02:53;;;;;;;4.87;1.10;;;22.40;78.20;;;21.42;55.71;101171.84;4989892;28;20211;-87
2022/07/02 09:05:24;;;;;;;5.38;1.02;;;22.30;78.40;;;21.63;57.87;101176.78;4989199;28;20073;-88
2022/07/02 09:07:53;;;;;;;2.95;0.88;;;22.40;81.10;;;21.75;56.16;101168.44;4988056;28;20113;-88
2022/07/02 09:10:21;;;;;;;4.97;0.93;;;22.50;79.50;;;21.90;55.05;101172.66;4987934;28;20456;-89
2022/07/02 09:12:49;;;;;;;3.08;0.70;;;22.60;78.20;;;21.84;54.26;101163.38;4988140;28;20409;-88
2022/07/02 09:15:17;;;;;;;4.75;1.02;;;22.50;76.90;;;21.85;54.36;101171.44;4968741;28;20086;-88
2022/07/02 09:17:45;;;;;;;4.70;0.90;;;22.50;77.60;;;21.94;51.76;101158.06;4978487;28;20050;-88
2022/07/02 09:20:13;;;;;;;3.95;0.80;;;22.60;75.70;;;22.06;54.40;101160.78;4986779;28;20046;-88
2022/07/02 09:22:45;;;;;;;2.67;0.93;;;22.60;77.80;;;22.08;57.22;101152.22;4987373;28;20089;-89
2022/07/02 09:25:16;;;;;;;5.43;0.70;;;22.70;80.30;;;22.10;56.15;101150.88;4987173;28;20049;-88
2022/07/02 09:27:45;;;;;;;2.72;0.93;;;22.70;80.00;;;22.12;53.85;101151.47;4999111;23;20159;-83
2022/07/02 09:30:17;;;;;;;6.07;1.58;;;22.70;78.20;;;22.09;57.77;101156.72;4969483;28;20038;-82
2022/07/02 09:32:47;;;;;;;3.25;0.90;;;22.80;81.10;;;21.90;52.51;101150.50;4970114;28;20043;-82
2022/07/02 09:35:19;;;;;;;3.45;1.17;;;22.70;76.60;;;21.84;53.91;101150.38;4971412;28;20050;-80
2022/07/02 09:37:51;;;;;;;3.40;0.90;;;22.60;75.50;;;21.95;53.75;101153.34;4971917;28;20129;-79
2022/07/02 09:40:20;;;;;;;5.18;0.90;;;22.60;76.90;;;22.04;54.45;101151.88;4986528;28;20497;-79
2022/07/02 09:42:49;;;;;;;3.63;0.70;;;22.70;77.20;;;22.18;55.58;101147.75;4973385;28;20042;-78
2022/07/02 09:45:17;;;;;;;4.88;0.82;;;22.80;78.60;;;22.22;51.66;101148.09;4969820;28;20050;-79
2022/07/02 09:47:49;;;;;;;2.78;0.80;;;22.80;74.30;;;22.30;53.16;101155.22;4966749;28;20125;-79
2022/07/02 09:50:19;;;;;;;3.78;0.77;;;22.90;76.10;;;22.31;53.74;101138.31;4969357;28;20049;-81
2022/07/02 09:52:53;;;;;;;6.68;1.15;;;22.90;78.40;;;22.24;54.91;101143.16;4971810;28;20122;-82
2022/07/02 09:55:23;;;;;;;4.30;1.00;;;23.00;77.20;;;22.12;54.51;101143.16;4968205;28;20038;-84
2022/07/02 09:57:53;;;;;;;3.65;0.88;;;22.90;77.10;;;22.16;51.44;101147.16;4969926;28;20051;-85
2022/07/02 10:00:21;;;;;;;2.55;0.80;;;22.90;73.30;;;22.14;52.19;101143.78;4971719;28;20049;-85
2022/07/02 10:02:52;;;;;;;3.13;0.70;;;22.90;73.80;;;22.10;53.16;101150.88;4972815;28;20074;-83
2022/07/02 10:05:25;;;;;;;5.82;0.90;;;22.90;75.30;;;22.02;52.46;101149.34;4971040;28;20069;-84
2022/07/02 10:07:56;;;;;;;2.55;0.80;;;22.90;74.40;;;22.09;52.26;101137.31;4969351;28;20050;-84
2022/07/02 10:10:32;;;;;;;3.70;0.95;;;22.90;73.90;;;22.20;52.70;101123.38;4969453;28;20134;-84
2022/07/02 10:12:59;;;;;;;3.42;1.00;;;22.90;75.00;;;22.20;55.39;101122.53;4971717;28;20509;-84
2022/07/02 10:15:31;;;;;;;3.83;1.08;;;22.90;77.70;;;22.27;54.77;101122.41;4972063;28;20034;-84
2022/07/02 10:18:01;;;;;;;5.63;1.02;;;22.90;77.10;;;22.33;52.48;101115.88;4972635;28;20050;-84
2022/07/02 10:20:30;;;;;;;3.90;1.00;;;23.00;75.10;;;22.37;52.11;101112.38;4956673;28;20583;-84
2022/07/02 10:23:02;;;;;;;4.50;0.80;;;23.00;74.30;;;22.42;52.21;101117.16;4970499;28;20051;-84
2022/07/02 10:25:30;;;;;;;5.38;0.80;;;23.00;74.10;;;22.48;55.64;101113.38;4972510;28;20038;-84
2022/07/02 10:27:57;;;;;;;1.95;1.00;;;23.10;77.30;;;22.55;52.23;101116.00;4972469;28;20050;-84
2022/07/02 10:30:27;;;;;;;5.40;0.80;;;23.10;74.70;;;22.55;51.69;101107.69;4972396;28;20082;-84
2022/07/02 10:33:06;;;;;;;2.75;1.00;;;23.20;74.20;;;22.49;51.99;101108.69;4972846;28;20047;-84
2022/07/02 10:35:35;;;;;;;4.00;1.00;;;23.20;74.00;;;22.46;51.10;101104.47;4972295;28;20409;-84